Time;durP1;ratioP1;P1;durP2;ratioP2;P2;SDS_P1;SDS_P2;PMS_P1;PMS_P2;Temp;Humidity;BMP_temperature;BMP_pressure;BME280_temperature;BME280_humidity;BME280_pressure;Samples;Min_cycle;Max_cycle;Signal;HPM_P1;HPM_P2
2022/04/23 00:02:28;;;;;;;6.50;5.90;;;9.90;99.90;;;;;;5052386;28;20604;-70
2022/04/23 00:05:17;;;;;;;6.33;5.77;;;9.90;99.90;;;;;;5052624;28;20455;-69
2022/04/23 00:08:06;;;;;;;5.67;5.17;;;9.80;99.90;;;;;;5052990;28;20814;-70
2022/04/23 00:10:56;;;;;;;6.40;5.80;;;9.70;99.90;;;;;;5052698;28;20560;-69
2022/04/23 00:13:44;;;;;;;6.50;6.00;;;9.70;99.90;;;;;;5047610;28;20589;-69
2022/04/23 00:16:32;;;;;;;6.10;5.60;;;9.70;99.90;;;;;;5050772;28;20530;-69
2022/04/23 00:19:22;;;;;;;6.33;5.80;;;9.70;99.90;;;;;;5046339;28;20502;-69
2022/04/23 00:22:10;;;;;;;6.23;5.70;;;9.60;99.90;;;;;;5053802;28;20652;-69
2022/04/23 00:24:59;;;;;;;6.20;5.60;;;9.50;99.90;;;;;;5054946;28;20469;-69
2022/04/23 00:27:48;;;;;;;6.53;5.93;;;9.50;99.90;;;;;;5048366;28;20573;-69
2022/04/23 00:30:36;;;;;;;7.00;6.33;;;9.50;99.90;;;;;;5051277;28;21068;-69
2022/04/23 00:33:25;;;;;;;5.93;5.33;;;9.40;99.90;;;;;;5054367;28;20535;-69
2022/04/23 00:36:13;;;;;;;6.80;6.20;;;9.40;99.90;;;;;;5051875;28;20486;-69
2022/04/23 00:39:01;;;;;;;6.60;6.00;;;9.40;99.90;;;;;;5051710;28;20532;-70
2022/04/23 00:41:51;;;;;;;7.40;6.83;;;9.30;99.90;;;;;;5053083;28;20503;-69
2022/04/23 00:44:41;;;;;;;7.03;6.43;;;9.30;99.90;;;;;;5051359;28;21028;-69
2022/04/23 00:47:29;;;;;;;8.70;7.27;;;9.20;99.90;;;;;;5051360;28;20526;-69
2022/04/23 00:50:21;;;;;;;7.67;6.90;;;9.20;99.90;;;;;;5057008;28;20470;-69
2022/04/23 00:53:09;;;;;;;8.67;6.73;;;9.10;99.90;;;;;;5051597;28;20712;-69
2022/04/23 00:55:58;;;;;;;7.73;7.10;;;9.10;99.90;;;;;;5052371;28;20541;-70
2022/04/23 00:58:47;;;;;;;7.70;7.00;;;9.00;99.90;;;;;;5055542;28;20462;-69
2022/04/23 01:01:39;;;;;;;7.43;6.83;;;9.00;99.90;;;;;;5054303;28;20461;-69
2022/04/23 01:04:30;;;;;;;9.00;8.10;;;8.90;99.90;;;;;;5054509;28;20480;-69
2022/04/23 01:07:19;;;;;;;8.93;8.13;;;8.90;99.90;;;;;;5053905;28;20573;-69
2022/04/23 01:10:08;;;;;;;10.20;8.30;;;8.90;99.90;;;;;;5044501;28;20482;-69
2022/04/23 01:12:56;;;;;;;9.10;8.20;;;8.80;99.90;;;;;;5053887;28;20490;-69
2022/04/23 01:15:58;;;;;;;11.70;8.80;;;8.80;99.90;;;;;;5053428;28;20887;-69
2022/04/23 01:18:47;;;;;;;9.23;8.43;;;8.70;99.90;;;;;;5052537;28;20457;-69
2022/04/23 01:21:37;;;;;;;9.80;8.60;;;8.70;99.90;;;;;;5057569;28;20568;-69
2022/04/23 01:24:26;;;;;;;9.27;8.37;;;8.70;99.90;;;;;;5051799;28;21280;-70
2022/04/23 01:27:14;;;;;;;9.80;8.80;;;8.70;99.90;;;;;;5044701;28;20821;-69
2022/04/23 01:30:03;;;;;;;10.03;9.03;;;8.60;99.90;;;;;;5056908;28;20490;-70
2022/04/23 01:32:51;;;;;;;10.00;9.00;;;8.60;99.90;;;;;;5042680;28;20553;-69
2022/04/23 01:35:39;;;;;;;10.00;9.10;;;8.50;99.90;;;;;;5052809;28;20841;-69
2022/04/23 01:38:29;;;;;;;12.37;9.30;;;8.50;99.90;;;;;;5052698;28;20470;-69
2022/04/23 01:41:17;;;;;;;11.10;9.20;;;8.50;99.90;;;;;;5048670;28;20582;-69
2022/04/23 01:44:05;;;;;;;10.77;9.30;;;8.50;99.90;;;;;;5046534;28;20516;-69
2022/04/23 01:46:54;;;;;;;11.97;9.73;;;8.40;99.90;;;;;;5048579;28;20473;-69
2022/04/23 01:49:44;;;;;;;10.67;9.57;;;8.40;99.90;;;;;;5050336;28;20576;-70
2022/04/23 01:52:32;;;;;;;11.27;10.17;;;8.40;99.90;;;;;;5052612;28;20475;-69
2022/04/23 01:55:22;;;;;;;11.33;10.17;;;8.40;99.90;;;;;;5053445;28;21047;-69
2022/04/23 01:58:10;;;;;;;11.23;10.13;;;8.40;99.90;;;;;;5049510;28;20939;-69
2022/04/23 02:00:59;;;;;;;12.57;11.37;;;8.30;99.90;;;;;;5053903;28;20573;-69
2022/04/23 02:03:48;;;;;;;11.37;10.27;;;8.30;99.90;;;;;;5053869;28;20636;-69
2022/04/23 02:06:36;;;;;;;13.20;10.60;;;8.30;99.90;;;;;;5053512;28;20549;-69
2022/04/23 02:09:24;;;;;;;13.00;11.60;;;8.20;99.90;;;;;;5049578;28;21061;-69
2022/04/23 02:12:14;;;;;;;13.20;11.47;;;8.10;99.90;;;;;;5049085;28;20462;-69
2022/04/23 02:15:02;;;;;;;14.47;10.70;;;8.10;99.90;;;;;;5052086;28;20466;-69
2022/04/23 02:17:52;;;;;;;13.07;11.77;;;8.10;99.90;;;;;;5055496;28;20450;-69
2022/04/23 02:20:40;;;;;;;14.07;11.60;;;8.10;99.90;;;;;;5050363;28;20474;-69
2022/04/23 02:23:29;;;;;;;14.10;12.17;;;8.00;99.90;;;;;;5053115;28;20994;-69
2022/04/23 02:26:17;;;;;;;15.17;12.10;;;8.00;99.90;;;;;;5056424;28;20589;-69
2022/04/23 02:29:06;;;;;;;15.73;12.80;;;8.00;99.90;;;;;;5054316;28;20482;-69
2022/04/23 02:31:54;;;;;;;15.70;11.60;;;7.90;99.90;;;;;;5054977;28;20542;-69
2022/04/23 02:34:43;;;;;;;12.77;11.47;;;7.90;99.90;;;;;;5052335;28;20606;-69
2022/04/23 02:37:34;;;;;;;16.20;12.50;;;7.90;99.90;;;;;;5054108;28;20454;-70
2022/04/23 02:40:23;;;;;;;14.80;12.33;;;7.90;99.90;;;;;;5052091;28;20545;-71
2022/04/23 02:43:12;;;;;;;15.17;13.00;;;7.90;99.90;;;;;;5047545;28;21073;-69
2022/04/23 02:46:02;;;;;;;13.30;11.87;;;7.80;99.90;;;;;;5050577;28;20483;-69
2022/04/23 02:48:50;;;;;;;20.73;13.70;;;7.80;99.90;;;;;;5055040;28;20474;-69
2022/04/23 02:51:40;;;;;;;14.03;12.40;;;7.80;99.90;;;;;;5053175;28;20569;-69
2022/04/23 02:54:28;;;;;;;14.97;12.97;;;7.70;99.90;;;;;;5051655;28;20482;-69
2022/04/23 02:57:16;;;;;;;14.13;12.63;;;7.70;99.90;;;;;;5051948;28;20544;-69
2022/04/23 03:00:06;;;;;;;16.70;12.63;;;7.70;99.90;;;;;;5054123;28;20608;-69
2022/04/23 03:02:56;;;;;;;17.07;14.67;;;7.70;99.90;;;;;;5053033;28;20566;-69
2022/04/23 03:05:44;;;;;;;16.87;14.80;;;7.70;99.90;;;;;;5046884;28;20547;-69
2022/04/23 03:08:32;;;;;;;14.83;13.23;;;7.70;99.90;;;;;;5055542;28;20549;-70
2022/04/23 03:11:21;;;;;;;15.70;13.53;;;7.70;99.90;;;;;;5049893;28;20500;-69
2022/04/23 03:14:10;;;;;;;15.30;13.70;;;7.60;99.90;;;;;;5049612;28;20561;-69
2022/04/23 03:16:58;;;;;;;18.93;14.10;;;7.60;99.90;;;;;;5055106;28;20550;-69
2022/04/23 03:19:48;;;;;;;18.17;14.57;;;7.60;99.90;;;;;;5051423;28;20548;-69
2022/04/23 03:22:36;;;;;;;19.93;14.23;;;7.60;99.90;;;;;;5050774;28;20474;-69
2022/04/23 03:25:24;;;;;;;17.87;14.77;;;7.50;99.90;;;;;;5049101;28;20454;-69
2022/04/23 03:28:14;;;;;;;17.80;14.70;;;7.50;99.90;;;;;;5050063;28;20512;-70
2022/04/23 03:31:03;;;;;;;18.33;14.67;;;7.40;99.90;;;;;;5052673;28;20462;-69
2022/04/23 03:33:51;;;;;;;18.80;15.50;;;7.40;99.90;;;;;;5049371;28;20486;-69
2022/04/23 03:36:41;;;;;;;22.97;16.30;;;7.40;99.90;;;;;;5038641;28;21135;-69
2022/04/23 03:39:29;;;;;;;21.63;16.37;;;7.40;99.90;;;;;;5054857;28;20615;-69
2022/04/23 03:42:17;;;;;;;18.13;15.77;;;7.40;99.90;;;;;;5053527;28;20532;-68
2022/04/23 03:45:09;;;;;;;21.27;16.23;;;7.40;99.90;;;;;;5052948;28;20462;-70
2022/04/23 03:47:57;;;;;;;20.40;16.00;;;7.40;99.90;;;;;;5057799;28;20874;-69
2022/04/23 03:50:47;;;;;;;17.13;15.30;;;7.40;99.90;;;;;;5057363;28;20684;-69
2022/04/23 03:53:37;;;;;;;19.10;16.30;;;7.30;99.90;;;;;;5055613;28;20582;-69
2022/04/23 03:56:25;;;;;;;19.83;16.73;;;7.30;99.90;;;;;;5059214;28;20513;-69
2022/04/23 03:59:14;;;;;;;20.63;17.40;;;7.30;99.90;;;;;;5052864;28;20485;-68
2022/04/23 04:02:04;;;;;;;20.70;17.60;;;7.30;99.90;;;;;;5052096;28;20454;-69
2022/04/23 04:04:52;;;;;;;19.87;17.30;;;7.20;99.90;;;;;;5049394;28;20487;-69
2022/04/23 04:07:42;;;;;;;19.57;16.00;;;7.20;99.90;;;;;;5055523;28;20528;-69
2022/04/23 04:10:32;;;;;;;20.63;16.57;;;7.20;99.90;;;;;;5053961;28;20478;-69
2022/04/23 04:13:20;;;;;;;22.07;17.70;;;7.20;99.90;;;;;;5054023;28;20650;-69
2022/04/23 04:16:08;;;;;;;21.10;17.60;;;7.10;99.90;;;;;;5056065;28;20466;-69
2022/04/23 04:18:57;;;;;;;22.97;18.60;;;7.10;99.90;;;;;;5052845;28;20863;-69
2022/04/23 04:21:47;;;;;;;21.50;16.77;;;7.10;99.90;;;;;;5057798;28;20549;-69
2022/04/23 04:24:35;;;;;;;19.87;17.10;;;7.10;99.90;;;;;;5049683;28;20514;-69
2022/04/23 04:27:25;;;;;;;21.30;17.67;;;7.10;99.90;;;;;;5054315;28;20459;-69
2022/04/23 04:30:14;;;;;;;21.10;17.07;;;7.10;99.90;;;;;;5054730;28;20597;-69
2022/04/23 04:33:08;;;;;;;20.20;16.93;;;7.00;99.90;;;;;;5053574;28;20490;-69
2022/04/23 04:35:56;;;;;;;21.13;17.30;;;7.00;99.90;;;;;;5050476;28;20467;-69
2022/04/23 04:38:44;;;;;;;24.80;18.00;;;7.10;99.90;;;;;;5053263;28;20936;-69
2022/04/23 04:41:33;;;;;;;22.67;18.50;;;7.00;99.90;;;;;;5053418;28;20583;-69
2022/04/23 04:44:22;;;;;;;22.00;17.70;;;7.00;99.90;;;;;;5052794;28;20607;-69
2022/04/23 04:47:10;;;;;;;24.27;17.93;;;7.00;99.90;;;;;;5057959;28;20573;-69
2022/04/23 04:49:59;;;;;;;22.53;18.50;;;7.00;99.90;;;;;;5052826;28;20892;-69
2022/04/23 04:52:47;;;;;;;21.73;18.20;;;7.10;99.90;;;;;;5055039;28;20917;-69
2022/04/23 04:55:36;;;;;;;21.43;17.73;;;7.10;99.90;;;;;;5057869;28;20553;-69
2022/04/23 04:58:24;;;;;;;20.93;17.90;;;7.10;99.90;;;;;;5050687;28;20489;-69
2022/04/23 05:01:14;;;;;;;21.33;17.70;;;7.10;99.90;;;;;;5055126;28;20454;-69
2022/04/23 05:04:05;;;;;;;24.53;19.33;;;7.10;99.90;;;;;;5052059;28;20486;-69
2022/04/23 05:06:53;;;;;;;21.53;18.27;;;7.20;99.90;;;;;;5054493;28;20466;-69
2022/04/23 05:09:41;;;;;;;21.43;18.30;;;7.20;99.90;;;;;;5049838;28;20609;-69
2022/04/23 05:12:30;;;;;;;21.60;18.10;;;7.20;99.90;;;;;;5045743;28;20470;-69
2022/04/23 05:15:18;;;;;;;22.77;19.10;;;7.20;99.90;;;;;;5051662;28;20466;-69
2022/04/23 05:18:07;;;;;;;19.90;16.93;;;7.30;99.90;;;;;;5054568;28;20597;-69
2022/04/23 05:20:56;;;;;;;19.60;17.03;;;7.30;99.90;;;;;;5052141;28;20474;-70
2022/04/23 05:23:44;;;;;;;21.20;17.07;;;7.30;99.90;;;;;;5042484;28;20586;-69
2022/04/23 05:26:32;;;;;;;23.50;17.90;;;7.40;99.90;;;;;;5051062;28;20486;-69
2022/04/23 05:29:20;;;;;;;24.80;17.40;;;7.40;99.90;;;;;;5052385;28;20573;-70
2022/04/23 05:32:09;;;;;;;23.83;18.10;;;7.50;99.90;;;;;;5050244;28;21022;-70
2022/04/23 05:34:59;;;;;;;21.63;17.33;;;7.50;99.90;;;;;;5053506;28;21007;-70
2022/04/23 05:37:47;;;;;;;24.07;18.37;;;7.60;99.90;;;;;;5049610;28;20450;-70
2022/04/23 05:40:35;;;;;;;18.33;15.73;;;7.60;99.90;;;;;;5049828;28;20518;-70
2022/04/23 05:43:23;;;;;;;21.90;16.97;;;7.70;99.90;;;;;;5048271;28;20478;-70
2022/04/23 05:46:11;;;;;;;19.43;16.83;;;7.70;99.90;;;;;;5055767;28;20537;-70
2022/04/23 05:49:02;;;;;;;18.53;16.63;;;7.80;99.90;;;;;;5048522;28;20514;-70
2022/04/23 05:51:52;;;;;;;20.93;18.20;;;7.80;99.90;;;;;;5049253;28;20541;-70
2022/04/23 05:54:40;;;;;;;19.27;16.63;;;7.90;99.90;;;;;;5053157;28;20514;-70
2022/04/23 05:57:28;;;;;;;17.60;15.70;;;7.90;99.90;;;;;;5048467;28;20472;-70
2022/04/23 06:00:17;;;;;;;18.50;16.50;;;8.00;99.90;;;;;;5053793;28;20605;-70
2022/04/23 06:03:06;;;;;;;18.50;16.63;;;8.10;99.90;;;;;;5050879;28;20553;-70
2022/04/23 06:05:54;;;;;;;18.10;16.30;;;8.20;99.90;;;;;;5051304;28;20506;-70
2022/04/23 06:08:44;;;;;;;17.23;15.43;;;8.20;99.90;;;;;;5049663;28;20615;-70
2022/04/23 06:11:32;;;;;;;17.63;15.93;;;8.30;99.90;;;;;;5051503;28;21045;-70
2022/04/23 06:14:20;;;;;;;17.10;15.30;;;8.40;99.90;;;;;;5046078;28;20648;-70
2022/04/23 06:17:08;;;;;;;17.50;15.20;;;8.50;99.90;;;;;;5048686;28;20539;-70
2022/04/23 06:19:57;;;;;;;17.37;15.57;;;8.50;99.90;;;;;;5050544;28;20474;-70
2022/04/23 06:22:45;;;;;;;16.87;15.17;;;8.60;99.90;;;;;;5050962;28;20560;-70
2022/04/23 06:25:35;;;;;;;17.73;14.87;;;8.70;99.90;;;;;;5045548;28;20461;-70
2022/04/23 06:28:23;;;;;;;16.43;14.77;;;8.80;99.90;;;;;;5040271;28;20585;-71
2022/04/23 06:31:11;;;;;;;15.17;13.47;;;8.80;99.90;;;;;;5034100;28;20538;-69
2022/04/23 06:33:59;;;;;;;16.07;14.33;;;8.90;99.90;;;;;;5039596;28;20474;-70
2022/04/23 06:36:47;;;;;;;16.00;14.30;;;9.00;99.90;;;;;;5035842;28;20558;-70
2022/04/23 06:39:36;;;;;;;15.37;13.87;;;9.10;99.90;;;;;;5038013;28;20482;-70
2022/04/23 06:42:26;;;;;;;14.60;13.20;;;9.20;99.90;;;;;;5032837;28;20588;-70
2022/04/23 06:45:14;;;;;;;13.70;12.17;;;9.30;99.90;;;;;;5031527;28;20472;-70
2022/04/23 06:48:04;;;;;;;14.17;12.70;;;9.30;99.90;;;;;;5049095;28;20562;-70
2022/04/23 06:50:52;;;;;;;12.23;11.03;;;9.40;99.90;;;;;;5052700;28;20486;-70
2022/04/23 06:53:41;;;;;;;12.37;11.23;;;9.50;99.90;;;;;;5048079;28;20483;-70
2022/04/23 06:56:30;;;;;;;13.50;12.20;;;9.60;99.90;;;;;;5048396;28;20889;-70
2022/04/23 06:59:19;;;;;;;14.40;12.30;;;9.70;99.90;;;;;;5037502;28;20564;-69
2022/04/23 07:02:07;;;;;;;13.00;11.80;;;9.80;99.90;;;;;;5043296;28;20461;-70
2022/04/23 07:04:56;;;;;;;13.03;11.83;;;9.90;99.90;;;;;;5051061;28;20478;-69
2022/04/23 07:07:55;;;;;;;13.43;12.03;;;10.00;99.90;;;;;;5028745;28;20551;-69
2022/04/23 07:10:44;;;;;;;12.47;11.13;;;10.10;99.90;;;;;;5041814;28;20478;-70
2022/04/23 07:13:35;;;;;;;12.30;11.20;;;10.10;99.90;;;;;;5035066;28;20498;-70
2022/04/23 07:16:25;;;;;;;12.40;11.17;;;10.30;99.90;;;;;;5054308;28;20453;-71
2022/04/23 07:19:13;;;;;;;12.47;11.40;;;10.30;99.90;;;;;;5048025;28;20462;-70
2022/04/23 07:22:01;;;;;;;11.47;10.47;;;10.50;99.90;;;;;;5046553;28;20450;-70
2022/04/23 07:24:50;;;;;;;11.80;10.73;;;10.60;99.90;;;;;;5042908;28;20660;-71
2022/04/23 07:27:38;;;;;;;11.40;10.30;;;10.70;99.90;;;;;;5031921;28;20455;-71
2022/04/23 07:30:29;;;;;;;11.20;10.20;;;10.80;99.90;;;;;;5051453;28;20482;-71
2022/04/23 07:39:41;;;;;;;9.40;8.60;;;11.10;99.90;;;;;;4977567;28;20480;-70
2022/04/23 07:42:30;;;;;;;9.40;8.60;;;11.30;99.90;;;;;;4972295;28;20677;-71
2022/04/23 07:45:18;;;;;;;8.80;8.00;;;11.30;99.90;;;;;;5035225;28;20502;-71
2022/04/23 07:48:07;;;;;;;8.67;7.97;;;11.40;99.90;;;;;;5047205;28;20484;-71
2022/04/23 07:50:56;;;;;;;7.63;7.03;;;11.60;99.90;;;;;;5032839;28;20608;-69
2022/04/23 07:53:44;;;;;;;7.67;7.03;;;11.70;99.90;;;;;;5032000;28;20482;-69
2022/04/23 07:56:33;;;;;;;7.97;7.20;;;11.80;99.90;;;;;;5038156;28;20449;-70
2022/04/23 07:59:22;;;;;;;7.83;7.23;;;11.90;99.90;;;;;;5034089;28;20475;-70
2022/04/23 08:02:10;;;;;;;7.47;6.87;;;12.00;99.90;;;;;;5042766;28;20521;-72
2022/04/23 08:04:59;;;;;;;7.07;6.53;;;12.10;99.90;;;;;;5044098;28;20829;-72
2022/04/23 08:07:48;;;;;;;7.50;6.90;;;12.20;99.90;;;;;;5026262;28;20467;-74
2022/04/23 08:10:37;;;;;;;7.30;6.70;;;12.30;99.90;;;;;;5048758;28;20497;-71
2022/04/23 08:13:25;;;;;;;6.40;5.80;;;12.40;99.90;;;;;;5039095;28;20613;-73
2022/04/23 08:16:13;;;;;;;6.50;5.90;;;12.40;99.90;;;;;;5030118;28;20487;-71
2022/04/23 08:19:01;;;;;;;6.67;6.07;;;12.60;99.90;;;;;;5048329;28;20509;-72
2022/04/23 08:21:49;;;;;;;7.70;6.67;;;12.60;99.90;;;;;;5046713;28;20454;-71
2022/04/23 08:24:39;;;;;;;7.53;6.83;;;12.80;99.90;;;;;;5022576;28;20478;-71
2022/04/23 08:27:27;;;;;;;6.60;6.00;;;12.80;99.90;;;;;;5045987;28;20466;-71
2022/04/23 08:33:21;;;;;;;6.23;5.63;;;13.00;99.90;;;;;;5044290;28;21101;-70
2022/04/23 08:36:09;;;;;;;6.83;5.57;;;13.10;99.90;;;;;;5034484;28;21001;-70
2022/04/23 08:38:59;;;;;;;6.03;5.50;;;13.20;99.90;;;;;;5045002;28;20490;-73
2022/04/23 08:41:48;;;;;;;6.10;5.60;;;13.30;99.90;;;;;;5038226;28;20458;-72
2022/04/23 08:44:37;;;;;;;6.43;5.93;;;13.30;99.90;;;;;;5036002;28;21002;-71
2022/04/23 08:47:27;;;;;;;6.40;5.83;;;13.40;99.90;;;;;;5036704;28;20458;-73
2022/04/23 08:50:20;;;;;;;6.50;6.00;;;13.50;99.90;;;;;;5031677;28;21145;-71
2022/04/23 08:53:13;;;;;;;6.17;5.67;;;13.60;99.90;;;;;;5044350;28;20466;-72
2022/04/23 08:56:02;;;;;;;6.90;6.40;;;13.70;99.90;;;;;;5033336;28;21073;-71
2022/04/23 08:58:52;;;;;;;6.23;5.73;;;13.70;99.90;;;;;;5029927;28;20461;-71
2022/04/23 09:01:40;;;;;;;6.30;5.80;;;13.80;99.90;;;;;;5026429;28;20449;-71
2022/04/23 09:04:29;;;;;;;5.97;5.47;;;13.90;99.90;;;;;;5039262;28;20473;-71
2022/04/23 09:07:21;;;;;;;6.33;5.40;;;14.00;99.90;;;;;;5031175;28;20467;-71
2022/04/23 09:10:10;;;;;;;7.60;5.90;;;14.00;99.90;;;;;;5032235;28;20999;-71
2022/04/23 09:13:01;;;;;;;6.90;6.30;;;14.10;99.90;;;;;;5028215;28;20609;-71
2022/04/23 09:25:35;;;;;;;6.63;5.97;;;14.50;99.90;;;;;;5041555;28;20562;-72
2022/04/23 09:28:26;;;;;;;6.47;5.97;;;14.60;99.90;;;;;;5052869;28;20450;-71
2022/04/23 09:31:16;;;;;;;5.30;4.90;;;14.60;99.90;;;;;;5049041;28;20473;-71
2022/04/23 09:34:15;;;;;;;6.13;5.63;;;14.60;99.90;;;;;;5042905;28;20490;-71
2022/04/23 09:37:05;;;;;;;6.67;6.17;;;14.70;99.90;;;;;;5030281;28;20801;-71
2022/04/23 09:39:53;;;;;;;5.77;5.37;;;14.80;99.90;;;;;;5033204;28;20483;-72
2022/04/23 09:42:41;;;;;;;6.37;5.67;;;14.90;99.90;;;;;;5023765;28;20493;-71
2022/04/23 09:45:31;;;;;;;6.43;5.97;;;14.90;99.90;;;;;;5039861;28;20455;-72
2022/04/23 09:48:20;;;;;;;6.73;6.13;;;15.00;99.90;;;;;;5036984;28;20457;-71
2022/04/23 09:51:24;;;;;;;6.27;5.77;;;15.10;99.90;;;;;;5033578;28;20824;-72
2022/04/23 09:54:12;;;;;;;6.43;5.93;;;15.10;99.90;;;;;;5039307;28;20477;-72
2022/04/23 09:57:01;;;;;;;6.70;6.10;;;15.20;99.90;;;;;;5040425;28;20990;-73
2022/04/23 09:59:51;;;;;;;7.40;6.60;;;15.30;99.90;;;;;;5030260;28;20535;-72
2022/04/23 10:02:40;;;;;;;6.30;5.90;;;15.40;99.90;;;;;;5026877;28;20479;-72
2022/04/23 10:05:30;;;;;;;6.57;5.97;;;15.40;99.90;;;;;;5036722;28;20953;-71
2022/04/23 10:08:23;;;;;;;6.03;5.50;;;15.50;99.90;;;;;;5034610;28;20936;-71
2022/04/23 10:11:17;;;;;;;5.80;5.40;;;15.50;99.90;;;;;;5029029;28;20483;-72
2022/04/23 10:14:06;;;;;;;8.60;6.40;;;15.70;99.90;;;;;;5028662;28;20487;-73
2022/04/23 10:16:56;;;;;;;6.60;6.10;;;15.60;99.90;;;;;;5035362;28;20460;-70
2022/04/23 10:19:45;;;;;;;6.17;5.63;;;15.60;99.90;;;;;;5034948;28;21628;-72
2022/04/23 10:22:44;;;;;;;6.47;5.90;;;15.60;99.90;;;;;;5046746;28;20505;-72
2022/04/23 10:25:49;;;;;;;6.70;6.20;;;15.70;99.90;;;;;;5034858;28;21115;-72
2022/04/23 10:28:43;;;;;;;5.97;5.50;;;15.80;99.90;;;;;;5039113;28;20462;-72
2022/04/23 10:31:32;;;;;;;10.33;6.50;;;15.90;99.90;;;;;;5032612;28;20497;-72
2022/04/23 10:34:34;;;;;;;6.00;5.50;;;15.90;99.90;;;;;;5025052;28;20564;-72
2022/04/23 10:37:24;;;;;;;6.80;5.73;;;16.00;99.90;;;;;;5034781;28;20608;-72
2022/04/23 10:40:18;;;;;;;9.60;5.73;;;16.10;99.90;;;;;;5033485;28;20479;-79
2022/04/23 10:43:12;;;;;;;5.80;5.20;;;16.20;99.90;;;;;;5035649;28;21107;-71
2022/04/23 10:46:01;;;;;;;6.00;5.50;;;16.30;99.90;;;;;;5031182;28;20477;-72
2022/04/23 10:48:49;;;;;;;5.97;5.53;;;16.40;99.90;;;;;;5038709;28;20537;-71
2022/04/23 10:51:45;;;;;;;5.50;5.20;;;16.40;99.90;;;;;;5034988;28;20737;-71
2022/04/23 10:54:57;;;;;;;5.60;5.20;;;16.50;99.90;;;;;;5039932;28;20482;-72
2022/04/23 10:57:51;;;;;;;5.70;5.30;;;16.70;99.90;;;;;;5028714;28;20490;-71
2022/04/23 11:00:45;;;;;;;6.47;5.93;;;16.80;99.90;;;;;;5036639;28;20981;-72
2022/04/23 11:03:33;;;;;;;6.37;5.80;;;16.90;99.90;;;;;;5037611;28;20960;-72
2022/04/23 11:12:55;;;;;;;5.90;5.40;;;16.80;99.90;;;;;;5034789;28;20560;-72
2022/04/23 11:16:07;;;;;;;6.87;6.10;;;16.90;99.90;;;;;;5028743;28;20450;-73
2022/04/23 11:18:58;;;;;;;7.07;6.47;;;16.70;99.90;;;;;;5029209;28;20459;-73
2022/04/23 11:21:47;;;;;;;6.50;5.93;;;16.90;99.90;;;;;;5022973;28;20451;-72
2022/04/23 11:24:35;;;;;;;6.40;5.90;;;17.00;99.90;;;;;;5032741;28;20498;-72
2022/04/23 11:27:25;;;;;;;7.00;6.50;;;17.20;99.90;;;;;;5027656;28;20459;-72
2022/04/23 11:30:15;;;;;;;6.67;6.20;;;17.30;99.90;;;;;;5029100;28;20474;-72
2022/04/23 11:33:11;;;;;;;6.20;5.80;;;17.40;99.90;;;;;;5037562;28;20484;-72
2022/04/23 11:36:00;;;;;;;7.23;6.73;;;17.60;99.90;;;;;;5028863;28;20542;-72
2022/04/23 11:38:48;;;;;;;6.67;6.27;;;17.70;99.90;;;;;;5024059;28;21046;-72
2022/04/23 11:41:38;;;;;;;6.20;5.80;;;17.80;99.90;;;;;;5024385;28;20460;-72
2022/04/23 11:47:33;;;;;;;6.50;6.00;;;18.10;99.90;;;;;;5042511;28;20533;-72
2022/04/23 11:50:22;;;;;;;6.40;5.90;;;18.20;99.90;;;;;;5025236;28;20463;-71
2022/04/23 11:53:10;;;;;;;6.77;6.20;;;18.30;99.90;;;;;;5025419;28;21019;-71
2022/04/23 11:55:59;;;;;;;6.20;5.80;;;18.40;99.90;;;;;;5034396;28;20478;-71
2022/04/23 11:58:47;;;;;;;6.03;5.53;;;18.40;99.90;;;;;;5040342;28;20888;-71
2022/04/23 12:01:36;;;;;;;6.53;6.03;;;18.50;99.90;;;;;;5038550;28;20477;-71
2022/04/23 12:04:26;;;;;;;6.50;6.10;;;18.50;99.90;;;;;;5035900;28;21007;-69
2022/04/23 12:07:14;;;;;;;6.70;6.10;;;18.40;99.90;;;;;;5034396;28;20463;-72
2022/04/23 12:10:03;;;;;;;6.30;5.90;;;18.50;99.90;;;;;;5019888;28;20466;-71
2022/04/23 12:12:52;;;;;;;6.40;5.90;;;18.60;99.90;;;;;;5028346;28;22855;-73
2022/04/23 12:15:46;;;;;;;6.73;6.23;;;18.70;99.90;;;;;;5033314;28;20446;-72
2022/04/23 12:18:34;;;;;;;6.97;6.40;;;18.60;99.90;;;;;;5040647;28;20953;-72
2022/04/23 12:21:24;;;;;;;7.43;6.83;;;18.70;99.90;;;;;;5032082;28;20514;-73
2022/04/23 12:24:30;;;;;;;8.13;7.53;;;18.90;99.90;;;;;;5026123;28;20550;-71
2022/04/23 12:27:18;;;;;;;9.03;8.40;;;19.10;99.90;;;;;;5032051;28;20450;-71
2022/04/23 12:42:52;;;;;;;8.60;8.00;;;19.00;99.90;;;;;;5023861;28;21055;-73
2022/04/23 12:45:40;;;;;;;10.70;9.90;;;19.00;99.90;;;;;;5041808;28;20505;-72
2022/04/23 12:48:29;;;;;;;11.37;10.27;;;18.80;99.90;;;;;;5038115;28;20461;-73
2022/04/23 12:51:17;;;;;;;10.50;9.50;;;18.90;99.90;;;;;;5041335;28;20459;-73
2022/04/23 12:54:14;;;;;;;10.63;9.63;;;19.10;99.90;;;;;;5041619;28;20475;-73
2022/04/23 12:57:13;;;;;;;10.20;9.40;;;19.20;99.90;;;;;;5033983;28;20467;-71
2022/04/23 13:00:01;;;;;;;9.87;9.17;;;19.30;99.90;;;;;;5044605;28;20599;-71
2022/04/23 13:02:53;;;;;;;11.63;10.63;;;19.40;99.90;;;;;;5047584;28;20478;-71
2022/04/23 13:05:42;;;;;;;9.30;8.60;;;19.60;99.90;;;;;;5047354;28;20988;-72
2022/04/23 13:11:37;;;;;;;9.87;9.07;;;19.90;99.90;;;;;;5049157;28;20441;-70
2022/04/23 13:14:25;;;;;;;10.53;9.73;;;19.90;99.90;;;;;;5036730;28;20474;-70
2022/04/23 13:17:13;;;;;;;8.53;7.93;;;20.00;99.90;;;;;;5031140;28;20841;-70
2022/04/23 13:20:02;;;;;;;9.40;8.70;;;19.90;99.90;;;;;;5038046;28;20846;-72
2022/04/23 13:22:50;;;;;;;10.50;9.70;;;19.90;99.90;;;;;;5050972;28;20489;-74
2022/04/23 13:25:43;;;;;;;10.73;9.73;;;19.90;99.90;;;;;;5045208;28;20554;-74
2022/04/23 13:28:32;;;;;;;8.97;8.37;;;20.00;99.90;;;;;;5041976;28;21009;-72
2022/04/23 13:31:21;;;;;;;9.20;8.50;;;20.20;99.90;;;;;;5041130;28;20461;-73
2022/04/23 13:34:09;;;;;;;9.93;9.07;;;20.50;99.90;;;;;;5030934;28;20482;-72
2022/04/23 13:36:57;;;;;;;9.73;9.03;;;20.80;99.90;;;;;;5034513;28;20451;-73
2022/04/23 13:39:45;;;;;;;10.40;9.50;;;20.70;99.90;;;;;;5028687;28;20481;-72
2022/04/23 13:42:34;;;;;;;10.67;9.87;;;20.60;99.90;;;;;;5048392;28;20474;-72
2022/04/23 13:45:24;;;;;;;9.47;8.67;;;20.40;99.90;;;;;;5043812;28;20471;-72
2022/04/23 13:48:13;;;;;;;9.93;9.13;;;20.40;99.90;;;;;;5038466;28;20466;-72
2022/04/23 13:51:02;;;;;;;9.33;8.63;;;20.40;99.90;;;;;;5043469;28;20466;-72
2022/04/23 13:53:52;;;;;;;9.70;9.00;;;20.60;99.90;;;;;;5036134;28;20497;-71
2022/04/23 13:56:40;;;;;;;10.10;9.10;;;20.80;99.90;;;;;;5041695;28;21002;-72
2022/04/23 13:59:29;;;;;;;10.53;9.73;;;21.20;99.90;;;;;;5035830;28;20461;-72
2022/04/23 14:11:36;;;;;;;12.67;11.67;;;21.90;99.90;;;;;;5034319;28;20466;-72
2022/04/23 14:14:25;;;;;;;10.63;9.93;;;21.70;99.90;;;;;;5038168;28;20485;-72
2022/04/23 14:17:13;;;;;;;10.83;9.93;;;21.90;99.90;;;;;;5035286;28;20459;-72
2022/04/23 14:20:02;;;;;;;11.20;10.40;;;21.90;99.90;;;;;;5029045;28;20575;-72
2022/04/23 14:22:51;;;;;;;11.03;10.10;;;22.00;99.90;;;;;;5036561;28;20505;-71
2022/04/23 14:25:40;;;;;;;11.20;10.20;;;22.10;99.90;;;;;;5043488;28;20457;-71
2022/04/23 14:28:28;;;;;;;10.57;9.87;;;22.00;99.90;;;;;;5051303;28;20567;-71
2022/04/23 14:31:16;;;;;;;12.17;10.60;;;21.90;99.90;;;;;;5027834;28;20552;-72
2022/04/23 14:34:04;;;;;;;11.43;10.57;;;21.60;99.90;;;;;;5027642;28;20485;-73
2022/04/23 14:36:54;;;;;;;11.60;10.60;;;21.60;99.90;;;;;;5028489;28;20497;-73
2022/04/23 14:39:42;;;;;;;12.07;10.90;;;21.70;99.90;;;;;;5029292;28;20487;-74
2022/04/23 14:42:31;;;;;;;12.10;11.20;;;21.60;99.90;;;;;;5034503;28;20473;-74
2022/04/23 14:45:19;;;;;;;11.57;10.77;;;21.70;99.90;;;;;;5029545;28;21216;-74
2022/04/23 14:48:09;;;;;;;11.70;10.80;;;21.80;99.90;;;;;;5015025;28;20491;-73
2022/04/23 14:54:04;;;;;;;10.93;10.03;;;21.90;99.90;;;;;;5045021;28;20469;-73
2022/04/23 14:56:53;;;;;;;11.20;10.30;;;22.00;99.90;;;;;;5030154;28;20454;-74
2022/04/23 14:59:42;;;;;;;10.83;9.93;;;21.90;99.90;;;;;;5043876;28;22437;-73
2022/04/23 15:02:31;;;;;;;11.40;10.53;;;21.70;99.90;;;;;;5025044;28;20853;-74
2022/04/23 15:05:19;;;;;;;10.40;9.50;;;21.50;99.90;;;;;;5015195;28;20905;-74
2022/04/23 15:08:08;;;;;;;11.50;10.70;;;21.30;99.90;;;;;;5032455;28;20984;-74
2022/04/23 15:10:58;;;;;;;10.70;9.90;;;21.20;99.90;;;;;;5024655;28;21020;-74
2022/04/23 15:13:46;;;;;;;10.37;9.57;;;20.90;99.90;;;;;;5026075;28;20565;-74
2022/04/23 15:16:35;;;;;;;10.73;9.93;;;20.70;99.90;;;;;;5016421;28;20508;-74
2022/04/23 15:19:25;;;;;;;10.60;9.60;;;20.40;99.90;;;;;;5020496;28;20611;-73
2022/04/23 15:22:13;;;;;;;12.20;11.20;;;20.20;99.90;;;;;;5028780;28;20462;-75
2022/04/23 15:25:01;;;;;;;11.90;10.97;;;19.90;99.90;;;;;;5016533;28;20822;-74
2022/04/23 15:27:54;;;;;;;10.83;10.03;;;19.60;99.90;;;;;;5017126;28;20492;-74
2022/04/23 15:30:43;;;;;;;10.63;9.83;;;19.50;99.90;;;;;;5005909;28;20516;-71
2022/04/23 15:33:31;;;;;;;10.80;9.83;;;19.40;99.90;;;;;;5027993;28;20964;-72